^^
Station Historical Data
 
Daily Summary for December 11, 2019 Units:  English    Metric   Both
Daily Weekly Monthly Yearly Custom
  Current: High: Low: Average:
Temperature: 32.4 °F 40.7 °F 32.4 °F 36.2 °F
Dew Point: 15 °F 15.1 °F 13.4 °F 14.2 °F
Humidity: 48.1% 48.1% 33% 40%
Wind Speed: 4.8mph 7.1mph 1.2mph 4.3mph
Wind Gust: 5mph 10mph - -
WindSE - - SW
Pressure: 30.12 in 30.13 in 30.12 in -
Precipitation: 0.00 in      
Historical Graphs
 
 
Tabular Data for December 11, 2019
Time Temperature Dew Point Pressure Wind Wind Speed Wind Gust Humidity Rainfall Rate (Hourly) solar
00:04 39.4 °F 14.6 °F 30.13 in WSW 3.6 mph 7 mph 36% 0.00 in 0 W/m2
00:09 39.6 °F 14.7 °F 30.13 in WSW 5.7 mph 6 mph 35.9% 0.00 in 0 W/m2
00:14 39.8 °F 14 °F 30.13 in SW 7.1 mph 7 mph 34.5% 0.00 in 0 W/m2
00:19 40.3 °F 13.4 °F 30.13 in WSW 6.8 mph 8 mph 33% 0.00 in 0 W/m2
00:24 40.6 °F 13.7 °F 30.13 in WSW 6.7 mph 7 mph 33% 0.00 in 0 W/m2
00:29 40.7 °F 14 °F 30.13 in WSW 5.4 mph 7 mph 33.3% 0.00 in 0 W/m2
00:34 40.4 °F 14.1 °F 30.13 in SSW 5 mph 6 mph 33.9% 0.00 in 0 W/m2
00:39 40.1 °F 13.9 °F 30.13 in SSW 6.2 mph 6 mph 33.9% 0.00 in 0 W/m2
00:44 39.7 °F 13.9 °F 30.13 in SSW 5.6 mph 5.5 mph 34.4% 0.00 in 0 W/m2
00:49 39.4 °F 13.8 °F 30.13 in SSW 5.6 mph 7 mph 34.8% 0.00 in 0 W/m2
00:54 39.1 °F 14.1 °F 30.13 in SW 3.8 mph 6 mph 35.5% 0.00 in 0 W/m2
00:59 38.8 °F 13.9 °F 30.13 in SSW 4.6 mph 5.4 mph 35.6% 0.00 in 0 W/m2
01:04 38.6 °F 13.9 °F 30.13 in SSW 5.6 mph 6 mph 36% 0.00 in 0 W/m2
01:09 38.2 °F 14.4 °F 30.13 in West 3.5 mph 6 mph 37.4% 0.00 in 0 W/m2
01:14 37.4 °F 14.7 °F 30.13 in WSW 3.8 mph 5 mph 39% 0.00 in 0 W/m2
01:19 36.7 °F 13.8 °F 30.13 in SW 4.1 mph 5 mph 38.5% 0.00 in 0 W/m2
01:24 36.6 °F 13.7 °F 30.13 in SW 3.4 mph 5 mph 38.6% 0.00 in 0 W/m2
01:29 36.5 °F 14.3 °F 30.13 in SSW 4.2 mph 4.4 mph 39.9% 0.00 in 0 W/m2
01:34 35.3 °F 15 °F 30.13 in NNE 3 mph 6 mph 43% 0.00 in 0 W/m2
01:39 34.5 °F 15.1 °F 30.13 in NNW 1.6 mph 3 mph 44.6% 0.00 in 0 W/m2
01:44 34.1 °F 15 °F 30.13 in NNW 1.2 mph 2 mph 45.1% 0.00 in 0 W/m2
01:49 33.6 °F 14.6 °F 30.12 in West 2.2 mph 2.1 mph 45.2% 0.00 in 0 W/m2
01:54 33.1 °F 14.4 °F 30.13 in West 3.9 mph 6.4 mph 45.8% 0.00 in 0 W/m2
01:59 32.6 °F 14.5 °F 30.13 in SW 7.1 mph 9 mph 46.9% 0.00 in 0 W/m2
02:04 32.9 °F 13.5 °F 30.12 in WSW 5.5 mph 10 mph 44.4% 0.00 in 0 W/m2
02:09 33.5 °F 14.4 °F 30.12 in West 3.8 mph 8 mph 44.9% 0.00 in 0 W/m2
02:14 33.9 °F 14.5 °F 30.12 in SW 3.1 mph 5 mph 44.5% 0.00 in 0 W/m2
02:19 34.1 °F 14.1 °F 30.12 in South 3.1 mph 4 mph 43.5% 0.00 in 0 W/m2
02:24 34.2 °F 14.5 °F 30.12 in WSW 2.5 mph 4 mph 43.9% 0.00 in 0 W/m2
02:29 34.3 °F 14.3 °F 30.12 in WSW 2.8 mph 3.1 mph 43.5% 0.00 in 0 W/m2
02:34 34.1 °F 14.3 °F 30.12 in SSW 3 mph 4 mph 43.8% 0.00 in 0 W/m2
02:39 34 °F 13.9 °F 30.12 in WSW 3.3 mph 4 mph 43.2% 0.00 in 0 W/m2
02:44 33.7 °F 14.6 °F 30.12 in WSW 4.4 mph 6 mph 45% 0.00 in 0 W/m2
02:49 33.3 °F 14.2 °F 30.12 in SW 4 mph 6 mph 44.9% 0.00 in 0 W/m2
02:54 33.3 °F 13.5 °F 30.12 in SW 2.8 mph 6 mph 43.6% 0.00 in 0 W/m2
02:59 33.4 °F 13.6 °F 30.12 in SW 4.3 mph 5.7 mph 43.6% 0.00 in 0 W/m2
03:04 33.1 °F 14.5 °F 30.12 in NNE 5.2 mph 9 mph 45.8% 0.00 in 0 W/m2
03:09 32.4 °F 15 °F 30.12 in SE 4.8 mph 5 mph 48.1% 0.00 in 0 W/m2
Rockcreek-Hillcrest Superior, Colorado, USA
Compliments of Weather Underground - 2 mb